Time;durP1;ratioP1;P1;durP2;ratioP2;P2;SDS_P1;SDS_P2;PMS_P1;PMS_P2;Temp;Humidity;BMP_temperature;BMP_pressure;BME280_temperature;BME280_humidity;BME280_pressure;Samples;Min_cycle;Max_cycle;Signal;HPM_P1;HPM_P2
2022/07/02 00:01:51;;;;;;;3.95;1.98;;;16.70;57.70;;;;;;5058555;28;20048;-63
2022/07/02 00:04:30;;;;;;;6.47;2.40;;;16.60;57.80;;;;;;5053272;28;20073;-63
2022/07/02 00:06:55;;;;;;;3.38;2.00;;;16.60;58.00;;;;;;5034752;28;20041;-63
2022/07/02 00:09:22;;;;;;;3.45;1.60;;;16.50;58.10;;;;;;5034932;28;20033;-63
2022/07/02 00:11:49;;;;;;;4.18;1.80;;;16.50;58.20;;;;;;5046885;28;20041;-63
2022/07/02 00:14:15;;;;;;;2.58;1.25;;;16.50;58.40;;;;;;5037409;28;20045;-63
2022/07/02 00:16:45;;;;;;;4.05;1.90;;;16.40;58.40;;;;;;5052124;28;20048;-63
2022/07/02 00:19:13;;;;;;;4.80;2.15;;;16.40;58.60;;;;;;5052268;28;20044;-63
2022/07/02 00:21:39;;;;;;;3.72;1.80;;;16.40;58.60;;;;;;5049341;28;20059;-63
2022/07/02 00:24:09;;;;;;;4.47;2.00;;;16.40;58.60;;;;;;5040441;28;20052;-63
2022/07/02 00:26:39;;;;;;;3.70;2.10;;;16.40;59.10;;;;;;5051541;28;20449;-63
2022/07/02 00:29:20;;;;;;;3.90;1.85;;;16.40;58.80;;;;;;5051763;28;20485;-63
2022/07/02 00:31:48;;;;;;;4.10;2.10;;;16.40;58.80;;;;;;5049865;28;20124;-63
2022/07/02 00:34:16;;;;;;;6.20;2.10;;;16.40;58.80;;;;;;5052280;28;20045;-63
2022/07/02 00:36:43;;;;;;;2.45;1.83;;;16.40;58.80;;;;;;5051635;28;20397;-63
2022/07/02 00:39:09;;;;;;;3.80;1.67;;;16.40;58.80;;;;;;5051217;28;20397;-63
2022/07/02 00:41:35;;;;;;;3.28;2.20;;;16.40;58.80;;;;;;5051850;28;20093;-63
2022/07/02 00:44:04;;;;;;;3.53;2.03;;;16.40;58.90;;;;;;5051361;28;20499;-63
2022/07/02 00:46:31;;;;;;;2.63;1.63;;;16.40;58.90;;;;;;5051768;28;20045;-63
2022/07/02 00:48:58;;;;;;;2.53;1.52;;;16.40;58.90;;;;;;5050733;28;20041;-63
2022/07/02 00:51:24;;;;;;;4.60;1.98;;;16.40;58.90;;;;;;5045371;28;20049;-63
2022/07/02 00:53:50;;;;;;;2.67;1.70;;;16.40;58.90;;;;;;5031974;28;20457;-63
2022/07/02 00:56:15;;;;;;;4.40;2.10;;;16.40;58.90;;;;;;5046293;28;20040;-63
2022/07/02 00:58:41;;;;;;;3.15;1.45;;;16.40;59.30;;;;;;5051044;28;20045;-63
2022/07/02 01:01:07;;;;;;;3.65;1.60;;;16.40;58.90;;;;;;5047709;28;20041;-63
2022/07/02 01:03:35;;;;;;;3.45;1.58;;;16.40;58.90;;;;;;5047433;28;20116;-63
2022/07/02 01:06:01;;;;;;;3.40;1.95;;;16.50;58.90;;;;;;5051454;28;20129;-63
2022/07/02 01:11:13;;;;;;;4.50;1.80;;;16.50;58.80;;;;;;5051397;28;20135;-63
2022/07/02 01:13:39;;;;;;;2.17;1.40;;;16.50;58.80;;;;;;5051121;28;20100;-63
2022/07/02 01:16:05;;;;;;;3.25;1.70;;;16.50;58.70;;;;;;5051026;28;20045;-63
2022/07/02 01:18:31;;;;;;;4.05;2.35;;;16.50;58.70;;;;;;5051153;28;20033;-63
2022/07/02 01:20:57;;;;;;;6.32;2.03;;;16.50;58.70;;;;;;5044530;28;20052;-63
2022/07/02 01:23:22;;;;;;;2.92;1.30;;;16.50;58.60;;;;;;5034877;28;20048;-63
2022/07/02 01:25:50;;;;;;;4.30;1.52;;;16.60;58.60;;;;;;5050904;28;20703;-63
2022/07/02 01:28:16;;;;;;;2.63;1.38;;;16.60;58.60;;;;;;5052115;28;20037;-63
2022/07/02 01:30:42;;;;;;;3.78;1.40;;;16.50;58.50;;;;;;5049968;28;20041;-63
2022/07/02 01:33:07;;;;;;;3.70;1.50;;;16.60;58.50;;;;;;5051099;28;20051;-63
2022/07/02 01:35:33;;;;;;;4.00;1.73;;;16.50;58.50;;;;;;5050777;28;20394;-63
2022/07/02 01:38:00;;;;;;;5.55;2.20;;;16.50;58.40;;;;;;5050211;28;20083;-63
2022/07/02 01:40:25;;;;;;;3.65;1.98;;;16.50;58.60;;;;;;5018429;28;20077;-63
2022/07/02 01:42:51;;;;;;;6.10;2.00;;;16.50;58.50;;;;;;5050527;28;20043;-63
2022/07/02 01:45:17;;;;;;;2.50;1.45;;;16.50;58.60;;;;;;5052323;28;20037;-62
2022/07/02 01:47:43;;;;;;;6.57;2.33;;;16.50;58.50;;;;;;5051768;28;20108;-63
2022/07/02 01:50:09;;;;;;;4.65;1.98;;;16.50;58.60;;;;;;5044322;28;20495;-63
2022/07/02 01:52:34;;;;;;;4.40;2.28;;;16.50;58.60;;;;;;5049543;28;20037;-63
2022/07/02 01:55:00;;;;;;;5.13;2.95;;;16.50;58.60;;;;;;5051755;28;20041;-63
2022/07/02 01:57:30;;;;;;;3.75;1.90;;;16.50;58.70;;;;;;5050664;28;20037;-63
2022/07/02 01:59:56;;;;;;;4.05;1.90;;;16.50;58.70;;;;;;5050905;28;20431;-63
2022/07/02 02:02:22;;;;;;;4.53;2.13;;;16.40;58.70;;;;;;5053977;28;20087;-63
2022/07/02 02:04:48;;;;;;;2.78;1.65;;;16.40;58.70;;;;;;5048590;28;20041;-63
2022/07/02 02:07:14;;;;;;;3.30;2.08;;;16.40;58.70;;;;;;5050265;28;20044;-63
2022/07/02 02:09:39;;;;;;;3.25;1.80;;;16.40;58.70;;;;;;5043519;28;20041;-63
2022/07/02 02:12:06;;;;;;;2.38;1.42;;;16.30;58.70;;;;;;5051247;28;20041;-63
2022/07/02 02:14:31;;;;;;;2.50;1.50;;;16.30;58.70;;;;;;5054249;28;20424;-63
2022/07/02 02:16:58;;;;;;;3.08;1.65;;;16.40;58.80;;;;;;5053895;28;20056;-63
2022/07/02 02:19:23;;;;;;;2.17;1.40;;;16.40;58.80;;;;;;5053352;28;20040;-63
2022/07/02 02:21:49;;;;;;;2.10;1.50;;;16.30;58.70;;;;;;5054155;28;20063;-63
2022/07/02 02:24:15;;;;;;;3.38;1.75;;;16.40;58.70;;;;;;5054852;28;20127;-63
2022/07/02 02:26:41;;;;;;;4.45;1.77;;;16.40;58.70;;;;;;5053883;28;20063;-63
2022/07/02 02:29:07;;;;;;;4.15;1.70;;;16.40;58.70;;;;;;5043650;28;20121;-64
2022/07/02 02:31:32;;;;;;;3.08;1.63;;;16.40;58.70;;;;;;5040151;28;20043;-64
2022/07/02 02:33:58;;;;;;;5.60;2.00;;;16.40;58.70;;;;;;5037283;28;20501;-66
2022/07/02 02:36:24;;;;;;;5.03;2.72;;;16.40;58.70;;;;;;5054967;28;20421;-64
2022/07/02 02:38:49;;;;;;;4.43;2.22;;;16.30;58.60;;;;;;5050197;28;20053;-63
2022/07/02 02:41:15;;;;;;;5.50;2.22;;;16.40;58.70;;;;;;5037528;28;20094;-64
2022/07/02 02:43:41;;;;;;;3.80;1.65;;;16.30;58.60;;;;;;5052802;28;20120;-63
2022/07/02 02:46:07;;;;;;;4.30;2.30;;;16.40;58.70;;;;;;5054884;28;20484;-64
2022/07/02 02:48:37;;;;;;;3.08;1.70;;;16.30;58.60;;;;;;5053918;28;20040;-63
2022/07/02 02:51:04;;;;;;;3.90;2.10;;;16.30;58.60;;;;;;5054157;28;20476;-64
2022/07/02 02:53:31;;;;;;;3.88;2.10;;;16.30;58.60;;;;;;5053585;28;20049;-63
2022/07/02 02:55:59;;;;;;;4.57;2.55;;;16.30;58.70;;;;;;5053820;28;20040;-63
2022/07/02 02:58:25;;;;;;;3.67;2.47;;;16.30;58.80;;;;;;5053680;28;20411;-64
2022/07/02 03:00:51;;;;;;;2.85;2.15;;;16.20;58.70;;;;;;5053984;28;20041;-64
2022/07/02 03:03:17;;;;;;;4.18;2.70;;;16.20;58.80;;;;;;5053905;28;20037;-63
2022/07/02 03:05:43;;;;;;;5.07;2.20;;;16.20;58.90;;;;;;5055081;28;20045;-64
2022/07/02 03:08:09;;;;;;;4.55;2.67;;;16.20;58.90;;;;;;5049230;28;20042;-64
2022/07/02 03:10:34;;;;;;;5.90;2.63;;;16.10;58.90;;;;;;5050505;28;20041;-64
2022/07/02 03:13:00;;;;;;;4.95;2.97;;;16.10;59.40;;;;;;5053749;28;20115;-64
2022/07/02 03:15:26;;;;;;;4.10;2.35;;;16.10;59.10;;;;;;5053437;28;20041;-63
2022/07/02 03:17:52;;;;;;;4.20;2.30;;;16.00;59.00;;;;;;5051706;28;20056;-63
2022/07/02 03:20:17;;;;;;;2.67;1.73;;;16.00;59.10;;;;;;5034926;28;20045;-63
2022/07/02 03:22:43;;;;;;;3.60;2.38;;;16.00;59.10;;;;;;5038640;28;20159;-64
2022/07/02 03:25:11;;;;;;;3.88;2.10;;;16.00;59.10;;;;;;5036950;28;20045;-63
2022/07/02 03:27:37;;;;;;;3.45;1.85;;;15.90;59.10;;;;;;5053257;28;20037;-64
2022/07/02 03:30:04;;;;;;;2.78;1.90;;;16.00;59.20;;;;;;5052176;28;20048;-63
2022/07/02 03:32:31;;;;;;;4.80;1.88;;;16.00;59.20;;;;;;5053373;28;20400;-63
2022/07/02 03:34:56;;;;;;;2.95;2.42;;;16.00;59.10;;;;;;5036605;28;20056;-63
2022/07/02 03:37:26;;;;;;;3.30;1.98;;;16.00;59.10;;;;;;5054264;28;20040;-63
2022/07/02 03:39:52;;;;;;;6.18;3.97;;;16.00;59.10;;;;;;5037731;28;20099;-63
2022/07/02 03:42:18;;;;;;;4.88;2.85;;;16.00;59.30;;;;;;5065849;28;20505;-63
2022/07/02 03:44:44;;;;;;;6.65;3.65;;;15.90;59.30;;;;;;5054038;28;20047;-63
2022/07/02 03:47:09;;;;;;;3.40;2.67;;;15.90;59.50;;;;;;5053920;28;20037;-63
2022/07/02 03:49:35;;;;;;;4.28;2.38;;;15.90;59.50;;;;;;5035323;28;20037;-63
2022/07/02 03:52:01;;;;;;;6.15;3.65;;;15.90;59.60;;;;;;5036266;28;20094;-63
2022/07/02 03:54:26;;;;;;;6.30;4.75;;;15.80;59.70;;;;;;5053792;28;20036;-63
2022/07/02 03:56:52;;;;;;;3.42;2.55;;;15.80;59.90;;;;;;5053197;28;20040;-63
2022/07/02 03:59:18;;;;;;;3.78;2.50;;;15.80;59.80;;;;;;5051265;28;20037;-63
2022/07/02 04:01:44;;;;;;;5.50;2.40;;;15.80;59.90;;;;;;5053779;28;20120;-63
2022/07/02 04:04:09;;;;;;;4.45;2.65;;;15.80;59.90;;;;;;5052287;28;20091;-63
2022/07/02 04:06:35;;;;;;;3.40;2.13;;;15.80;59.90;;;;;;5052680;28;20040;-62
2022/07/02 04:09:02;;;;;;;5.53;2.67;;;15.80;59.90;;;;;;5048251;28;20083;-63
2022/07/02 04:11:27;;;;;;;3.90;3.25;;;15.80;59.90;;;;;;5053960;28;20041;-63
2022/07/02 04:13:53;;;;;;;4.05;2.97;;;15.80;59.90;;;;;;5053952;28;20048;-63
2022/07/02 04:16:18;;;;;;;4.95;3.70;;;15.80;60.10;;;;;;5053660;28;20032;-62
2022/07/02 04:18:44;;;;;;;8.27;5.28;;;15.80;60.40;;;;;;5049440;28;20036;-62
2022/07/02 04:21:10;;;;;;;7.32;5.10;;;15.80;60.70;;;;;;5036196;28;20045;-63
2022/07/02 04:23:36;;;;;;;6.72;4.65;;;15.70;60.80;;;;;;5053166;28;20443;-63
2022/07/02 04:26:01;;;;;;;7.57;5.40;;;15.70;61.00;;;;;;5053402;28;20037;-62
2022/07/02 04:28:27;;;;;;;5.45;3.72;;;15.70;61.30;;;;;;5046961;28;20568;-62
2022/07/02 04:30:53;;;;;;;6.72;4.28;;;15.60;61.50;;;;;;5052273;28;20036;-63
2022/07/02 04:33:19;;;;;;;8.50;5.75;;;15.60;61.80;;;;;;5051530;28;20063;-62
2022/07/02 04:35:44;;;;;;;7.32;5.07;;;15.60;62.10;;;;;;5050940;28;20390;-63
2022/07/02 04:38:10;;;;;;;7.68;6.13;;;15.50;62.50;;;;;;5052517;28;20060;-63
2022/07/02 04:40:36;;;;;;;12.43;6.60;;;15.50;62.70;;;;;;5051513;28;20037;-63
2022/07/02 04:43:01;;;;;;;6.57;4.18;;;15.50;63.00;;;;;;5051741;28;20084;-63
2022/07/02 04:45:27;;;;;;;4.93;3.60;;;15.40;63.00;;;;;;5050524;28;20104;-63
2022/07/02 04:47:53;;;;;;;8.10;4.25;;;15.40;63.10;;;;;;5032819;28;20068;-63
2022/07/02 04:50:18;;;;;;;5.63;5.00;;;15.40;63.20;;;;;;5049312;28;20454;-63
2022/07/02 04:52:48;;;;;;;10.05;5.80;;;15.40;63.40;;;;;;5053023;28;20431;-63
2022/07/02 04:55:14;;;;;;;8.02;4.75;;;15.40;63.70;;;;;;5045360;28;20091;-63
2022/07/02 04:57:40;;;;;;;7.93;5.07;;;15.40;64.00;;;;;;5042355;28;20489;-63
2022/07/02 05:00:06;;;;;;;7.13;5.13;;;15.30;64.60;;;;;;5050836;28;20051;-62
2022/07/02 05:02:33;;;;;;;7.40;5.13;;;15.30;64.20;;;;;;5052514;28;20041;-62
2022/07/02 05:04:58;;;;;;;8.98;5.72;;;15.30;64.30;;;;;;5049063;28;20049;-62
2022/07/02 05:07:25;;;;;;;9.15;5.20;;;15.30;64.60;;;;;;5041002;28;20033;-63
2022/07/02 05:09:50;;;;;;;9.43;4.45;;;15.40;65.00;;;;;;5052549;28;20396;-62
2022/07/02 05:12:16;;;;;;;5.38;4.78;;;15.40;65.10;;;;;;5051629;28;20032;-62
2022/07/02 05:14:42;;;;;;;6.32;4.90;;;15.40;65.30;;;;;;5051306;28;20041;-62
2022/07/02 05:17:07;;;;;;;5.80;4.32;;;15.50;65.80;;;;;;5051674;28;20037;-62
2022/07/02 05:19:33;;;;;;;7.13;3.92;;;15.60;66.20;;;;;;5052474;28;20032;-62
2022/07/02 05:21:59;;;;;;;6.80;3.72;;;15.80;66.30;;;;;;5050466;28;20049;-62
2022/07/02 05:24:25;;;;;;;8.68;3.80;;;16.20;66.20;;;;;;5051227;28;20037;-62
2022/07/02 05:26:50;;;;;;;6.15;4.10;;;16.70;65.90;;;;;;5052792;28;20051;-62
2022/07/02 05:29:16;;;;;;;6.50;4.00;;;17.10;64.30;;;;;;5052073;28;20040;-62
2022/07/02 05:31:42;;;;;;;7.53;3.97;;;17.60;63.20;;;;;;5050527;28;20052;-62
2022/07/02 05:34:07;;;;;;;6.90;4.13;;;18.10;62.10;;;;;;5051621;28;20040;-62
2022/07/02 05:36:33;;;;;;;6.13;3.08;;;18.60;60.20;;;;;;5052305;28;20045;-62
2022/07/02 05:38:59;;;;;;;6.82;3.30;;;19.10;59.20;;;;;;5051262;28;20041;-62
2022/07/02 05:41:24;;;;;;;6.20;2.90;;;19.50;58.20;;;;;;5052228;28;20558;-62
2022/07/02 05:43:50;;;;;;;6.43;3.05;;;19.90;57.30;;;;;;5047742;28;20045;-62
2022/07/02 05:46:16;;;;;;;6.55;2.97;;;20.30;56.50;;;;;;5050708;28;20463;-62
2022/07/02 05:48:41;;;;;;;6.47;3.00;;;20.60;55.70;;;;;;5052353;28;20041;-62
2022/07/02 05:51:07;;;;;;;3.85;2.30;;;21.00;55.10;;;;;;5055982;28;20116;-62
2022/07/02 05:53:33;;;;;;;4.25;2.58;;;21.30;54.20;;;;;;5053966;28;20036;-62
2022/07/02 05:55:58;;;;;;;6.15;3.28;;;21.70;53.40;;;;;;5054932;28;20053;-62
2022/07/02 05:58:24;;;;;;;6.80;3.33;;;22.00;52.60;;;;;;5054745;28;20045;-62
2022/07/02 06:00:50;;;;;;;3.35;2.15;;;22.30;51.60;;;;;;5055926;28;20037;-62
2022/07/02 06:03:15;;;;;;;5.45;2.03;;;22.60;51.40;;;;;;5049405;28;20404;-62
2022/07/02 06:08:25;;;;;;;;;;;23.30;50.30;;;;;;5054775;28;20053;-62
2022/07/02 06:10:52;;;;;;;4.50;2.30;;;23.70;49.50;;;;;;5055756;28;19924;-62
2022/07/02 06:13:18;;;;;;;3.67;1.85;;;24.00;48.90;;;;;;5054581;28;20048;-62
2022/07/02 06:15:44;;;;;;;4.65;2.00;;;24.40;48.10;;;;;;5054845;28;20041;-62
2022/07/02 06:18:12;;;;;;;4.53;1.85;;;24.70;47.20;;;;;;5037863;28;20155;-62
2022/07/02 06:20:38;;;;;;;4.35;1.98;;;25.00;46.80;;;;;;5055525;28;20087;-63
2022/07/02 06:23:04;;;;;;;6.95;2.00;;;25.30;46.40;;;;;;5053758;28;20530;-63
2022/07/02 06:25:29;;;;;;;6.03;2.22;;;25.70;45.40;;;;;;5055695;28;20033;-63
2022/07/02 06:27:55;;;;;;;4.80;1.73;;;26.00;44.80;;;;;;5055591;28;20227;-63
2022/07/02 06:30:23;;;;;;;5.45;2.20;;;26.20;44.40;;;;;;5055392;28;20083;-63
2022/07/02 06:32:49;;;;;;;4.38;1.88;;;26.40;43.70;;;;;;5039956;28;20396;-62
2022/07/02 06:35:14;;;;;;;3.97;1.60;;;26.70;43.70;;;;;;5054741;28;20053;-62
2022/07/02 06:37:40;;;;;;;3.88;1.77;;;26.90;42.90;;;;;;5055553;28;20106;-62
2022/07/02 06:40:06;;;;;;;6.82;1.95;;;27.20;42.80;;;;;;5054768;28;20102;-63
2022/07/02 06:42:32;;;;;;;4.15;1.48;;;27.30;42.00;;;;;;5054022;28;20064;-63
2022/07/02 06:44:58;;;;;;;3.70;1.70;;;27.50;41.60;;;;;;5054902;28;20079;-63
2022/07/02 06:47:24;;;;;;;4.82;1.98;;;27.60;41.20;;;;;;5050045;28;20048;-63
2022/07/02 06:49:53;;;;;;;4.18;1.67;;;27.60;40.70;;;;;;5053945;28;20037;-63
2022/07/02 06:52:18;;;;;;;3.58;1.42;;;27.80;40.60;;;;;;5051384;28;20040;-63
2022/07/02 06:54:44;;;;;;;3.95;1.70;;;28.00;40.50;;;;;;5050986;28;20044;-63
2022/07/02 06:57:11;;;;;;;4.82;1.80;;;28.10;40.50;;;;;;5042275;28;20037;-63
2022/07/02 06:59:37;;;;;;;4.82;1.60;;;28.20;40.20;;;;;;5042695;28;20047;-63
2022/07/02 07:02:03;;;;;;;4.78;2.15;;;28.30;39.90;;;;;;5054482;28;20037;-63
2022/07/02 07:04:31;;;;;;;5.07;1.60;;;28.40;39.90;;;;;;5054915;28;20060;-63
2022/07/02 07:06:57;;;;;;;4.55;2.22;;;28.50;39.70;;;;;;5052787;28;20055;-63
2022/07/02 07:09:23;;;;;;;4.55;2.03;;;28.60;39.30;;;;;;5054766;28;20047;-63
2022/07/02 07:11:50;;;;;;;4.50;2.08;;;28.70;39.50;;;;;;5036944;28;20044;-63
2022/07/02 07:14:16;;;;;;;4.05;1.63;;;28.90;39.70;;;;;;5054630;28;20037;-63
2022/07/02 07:16:42;;;;;;;3.38;1.90;;;29.00;39.00;;;;;;5053846;28;20408;-63
2022/07/02 07:19:08;;;;;;;3.25;1.63;;;29.10;38.70;;;;;;5052378;28;20092;-63
2022/07/02 07:21:35;;;;;;;4.28;1.50;;;29.10;38.70;;;;;;5051302;28;20439;-63
2022/07/02 07:24:01;;;;;;;5.03;2.08;;;29.20;38.80;;;;;;5052546;28;20045;-63
2022/07/02 07:26:26;;;;;;;7.28;2.67;;;29.30;38.40;;;;;;5051771;28;20114;-63
2022/07/02 07:28:52;;;;;;;4.35;2.00;;;29.30;38.10;;;;;;5052335;28;20111;-63
2022/07/02 07:31:20;;;;;;;4.55;1.33;;;29.30;37.70;;;;;;5051701;28;20484;-63
2022/07/02 07:33:50;;;;;;;3.55;1.10;;;29.20;37.20;;;;;;5051854;28;20055;-63
2022/07/02 07:36:20;;;;;;;4.05;1.20;;;29.20;36.90;;;;;;5053263;28;20447;-63
2022/07/02 07:38:47;;;;;;;4.68;1.42;;;29.10;36.90;;;;;;5047900;28;20374;-63
2022/07/02 07:41:13;;;;;;;2.65;1.00;;;28.90;36.90;;;;;;5047064;28;20463;-63
2022/07/02 07:43:39;;;;;;;3.28;1.02;;;28.80;36.90;;;;;;5051953;28;20073;-63
2022/07/02 07:46:04;;;;;;;3.05;1.10;;;28.70;36.90;;;;;;5054367;28;20033;-63
2022/07/02 07:48:30;;;;;;;3.67;0.82;;;28.70;36.90;;;;;;5049635;28;20091;-63
2022/07/02 07:50:56;;;;;;;5.03;1.67;;;28.60;36.70;;;;;;5037439;28;20098;-63
2022/07/02 07:53:21;;;;;;;2.95;1.40;;;28.60;36.90;;;;;;5054037;28;20050;-63
2022/07/02 07:55:48;;;;;;;2.55;0.80;;;28.60;37.10;;;;;;5054235;28;20102;-63
2022/07/02 07:58:17;;;;;;;2.53;0.77;;;28.60;37.00;;;;;;5051159;28;20103;-63
2022/07/02 08:00:43;;;;;;;3.60;1.15;;;28.70;37.40;;;;;;5047149;28;20040;-63
2022/07/02 08:03:09;;;;;;;4.47;1.40;;;28.70;37.30;;;;;;5046695;28;20048;-64
2022/07/02 08:05:36;;;;;;;4.25;1.20;;;28.80;37.10;;;;;;5036324;28;20084;-63
2022/07/02 08:08:02;;;;;;;2.10;0.93;;;28.80;36.90;;;;;;5052979;28;20124;-63
2022/07/02 08:10:28;;;;;;;3.72;1.48;;;28.80;36.80;;;;;;5045805;28;20038;-64
2022/07/02 08:12:54;;;;;;;2.30;0.88;;;28.80;36.20;;;;;;5045141;28;20049;-63
2022/07/02 08:15:19;;;;;;;2.17;1.30;;;28.90;36.30;;;;;;5052536;28;20071;-63
2022/07/02 08:17:45;;;;;;;2.53;1.15;;;28.80;36.30;;;;;;5052436;28;20033;-63
2022/07/02 08:20:11;;;;;;;2.17;0.90;;;28.70;36.50;;;;;;5052223;28;20480;-62
2022/07/02 08:22:38;;;;;;;2.45;0.93;;;28.80;36.60;;;;;;5052393;28;20044;-63
2022/07/02 08:25:06;;;;;;;2.58;0.90;;;28.80;36.60;;;;;;5035558;28;20384;-64
2022/07/02 08:27:32;;;;;;;3.03;0.88;;;28.80;36.40;;;;;;5052954;28;20032;-66
2022/07/02 08:29:58;;;;;;;2.00;0.95;;;28.80;35.90;;;;;;5051531;28;20037;-67
2022/07/02 08:32:25;;;;;;;3.15;1.10;;;28.80;36.00;;;;;;5053070;28;20099;-66
2022/07/02 08:34:53;;;;;;;2.28;0.80;;;28.80;35.90;;;;;;5053026;28;20037;-64
2022/07/02 08:37:22;;;;;;;1.25;0.50;;;28.90;35.70;;;;;;5037991;28;20088;-63
2022/07/02 08:39:47;;;;;;;2.85;0.70;;;28.90;35.30;;;;;;5051860;28;20047;-63
2022/07/02 08:42:25;;;;;;;2.08;0.70;;;28.90;34.50;;;;;;5058245;28;20036;-63
2022/07/02 08:44:55;;;;;;;0.75;0.45;;;28.90;34.40;;;;;;5062482;28;20051;-63
2022/07/02 08:47:21;;;;;;;2.35;0.55;;;28.80;34.40;;;;;;5064330;28;20044;-62
2022/07/02 08:49:47;;;;;;;1.05;0.40;;;28.80;34.80;;;;;;5052004;28;20037;-63
2022/07/02 08:52:18;;;;;;;2.97;0.50;;;28.80;34.10;;;;;;5053219;28;20106;-63
2022/07/02 08:54:45;;;;;;;2.15;0.60;;;28.80;34.00;;;;;;5052971;28;20037;-63
2022/07/02 08:57:14;;;;;;;1.30;0.60;;;28.70;34.80;;;;;;5051554;28;20044;-63
2022/07/02 08:59:40;;;;;;;0.55;0.20;;;28.70;34.50;;;;;;5051689;28;20463;-63
2022/07/02 09:02:07;;;;;;;2.85;0.57;;;28.60;34.10;;;;;;5052721;28;20065;-62
2022/07/02 09:04:45;;;;;;;0.95;0.32;;;28.60;34.00;;;;;;5052612;28;20052;-64
2022/07/02 09:07:13;;;;;;;1.33;0.40;;;28.60;33.60;;;;;;5050870;28;20079;-62
2022/07/02 09:09:41;;;;;;;1.65;0.30;;;28.50;33.60;;;;;;5051872;28;20036;-64
2022/07/02 09:12:12;;;;;;;1.23;0.40;;;28.40;32.80;;;;;;5036622;28;20481;-64
2022/07/02 09:14:39;;;;;;;2.17;0.65;;;28.30;32.90;;;;;;5049616;28;20063;-66
2022/07/02 09:17:09;;;;;;;1.20;0.45;;;28.20;33.60;;;;;;5052703;28;20060;-64
2022/07/02 09:19:36;;;;;;;0.75;0.30;;;28.20;34.30;;;;;;5051761;28;20599;-63
2022/07/02 09:22:04;;;;;;;1.02;0.30;;;28.10;34.30;;;;;;5045488;28;20037;-63
2022/07/02 09:24:32;;;;;;;1.05;0.40;;;28.10;34.20;;;;;;5046411;28;20049;-62
2022/07/02 09:27:06;;;;;;;2.85;0.47;;;28.10;34.00;;;;;;5051714;28;20052;-62
2022/07/02 09:29:54;;;;;;;0.77;0.22;;;28.20;34.70;;;;;;5052748;28;20404;-63
2022/07/02 09:32:21;;;;;;;1.00;0.40;;;28.20;34.70;;;;;;5050529;28;20044;-63
2022/07/02 09:34:52;;;;;;;1.67;0.30;;;28.20;34.50;;;;;;5052337;28;20120;-63
2022/07/02 09:37:19;;;;;;;2.15;0.38;;;28.30;34.30;;;;;;5032726;28;20571;-62
2022/07/02 09:39:47;;;;;;;2.42;0.52;;;28.30;34.20;;;;;;5052628;28;20041;-63
2022/07/02 09:42:33;;;;;;;0.85;0.50;;;28.30;34.20;;;;;;5052013;28;20037;-63
2022/07/02 09:45:01;;;;;;;3.22;0.40;;;28.40;34.20;;;;;;5052217;28;20037;-63
2022/07/02 09:47:31;;;;;;;24.42;2.53;;;28.40;33.70;;;;;;5052169;28;20083;-63
2022/07/02 09:50:00;;;;;;;1.15;0.40;;;28.30;33.70;;;;;;5051184;28;20037;-62
2022/07/02 09:52:26;;;;;;;3.58;0.80;;;28.20;33.40;;;;;;5052527;28;20689;-62
2022/07/02 09:54:52;;;;;;;2.20;0.40;;;28.10;33.10;;;;;;5050573;28;20036;-63
2022/07/02 09:57:17;;;;;;;2.47;0.47;;;28.10;33.20;;;;;;5045047;28;20396;-63
2022/07/02 09:59:43;;;;;;;1.35;0.40;;;28.00;33.20;;;;;;5055263;28;20079;-63
2022/07/02 10:02:28;;;;;;;1.40;0.40;;;27.90;33.40;;;;;;5059841;28;20114;-63
2022/07/02 10:04:56;;;;;;;2.08;0.40;;;27.90;33.50;;;;;;5057729;28;20131;-62
2022/07/02 10:07:23;;;;;;;0.93;0.30;;;27.80;33.60;;;;;;5059276;28;20053;-62
2022/07/02 10:09:50;;;;;;;1.67;0.30;;;27.80;33.80;;;;;;5061393;28;20085;-62
2022/07/02 10:12:17;;;;;;;2.90;0.75;;;27.80;33.90;;;;;;5062125;28;20072;-62
2022/07/02 10:14:45;;;;;;;1.55;0.60;;;27.80;33.80;;;;;;5060433;28;20049;-62
2022/07/02 10:17:13;;;;;;;0.70;0.30;;;27.70;33.50;;;;;;5060131;28;20044;-62
2022/07/02 10:19:39;;;;;;;1.75;0.57;;;27.70;33.70;;;;;;5060612;28;20044;-64
2022/07/02 10:22:06;;;;;;;2.15;0.52;;;27.70;33.80;;;;;;5061638;28;20102;-62
2022/07/02 10:24:33;;;;;;;1.20;0.65;;;27.60;33.50;;;;;;5057548;28;20115;-63
2022/07/02 10:27:00;;;;;;;2.00;0.50;;;27.60;34.20;;;;;;5061800;28;20067;-62
2022/07/02 10:29:26;;;;;;;1.38;0.65;;;27.60;34.00;;;;;;5057323;28;20028;-62
2022/07/02 10:32:34;;;;;;;1.88;0.43;;;27.70;33.10;;;;;;5061727;28;20113;-62
2022/07/02 10:35:14;;;;;;;1.25;0.43;;;27.60;33.40;;;;;;5059150;28;20051;-62
2022/07/02 10:37:41;;;;;;;1.25;0.35;;;27.60;34.20;;;;;;5063886;28;20123;-62
2022/07/02 10:40:08;;;;;;;2.03;0.45;;;27.60;34.10;;;;;;5064288;28;20638;-62
2022/07/02 10:42:45;;;;;;;1.95;0.40;;;27.70;34.40;;;;;;5064303;28;20045;-62
2022/07/02 10:45:17;;;;;;;1.75;0.68;;;27.70;33.30;;;;;;5061762;28;20048;-62
2022/07/02 10:48:04;;;;;;;1.13;0.55;;;27.80;33.70;;;;;;5063934;28;20128;-62
2022/07/02 10:50:35;;;;;;;1.85;0.40;;;27.80;34.00;;;;;;5063667;28;20033;-63
2022/07/02 10:53:14;;;;;;;2.22;0.40;;;27.90;34.00;;;;;;5065332;28;20037;-62
2022/07/02 10:55:42;;;;;;;0.93;0.28;;;28.00;32.90;;;;;;5060106;28;20063;-63
2022/07/02 10:58:16;;;;;;;2.17;0.60;;;27.90;33.20;;;;;;5065627;28;20391;-62
2022/07/02 11:00:42;;;;;;;1.67;0.30;;;27.90;33.20;;;;;;5065858;28;20453;-63
2022/07/02 11:03:20;;;;;;;1.75;0.30;;;27.90;33.40;;;;;;5063507;28;20072;-62
2022/07/02 11:06:02;;;;;;;2.30;0.75;;;28.00;33.50;;;;;;5063969;28;20434;-63
2022/07/02 11:08:49;;;;;;;1.55;0.47;;;28.00;32.80;;;;;;5064759;28;20487;-62
2022/07/02 11:11:20;;;;;;;1.73;0.50;;;28.10;33.20;;;;;;5047811;28;20037;-62
2022/07/02 11:14:00;;;;;;;1.83;0.40;;;28.10;33.60;;;;;;5054203;28;20059;-63
2022/07/02 11:16:31;;;;;;;1.85;0.32;;;28.10;33.60;;;;;;5054490;28;20044;-62
2022/07/02 11:18:58;;;;;;;0.63;0.30;;;28.20;33.40;;;;;;5053763;28;20049;-62
2022/07/02 11:21:25;;;;;;;2.33;0.50;;;28.20;33.00;;;;;;5054508;28;20044;-62
2022/07/02 11:23:52;;;;;;;2.30;0.60;;;28.20;33.10;;;;;;5053095;28;20496;-62
2022/07/02 11:26:26;;;;;;;2.40;0.60;;;28.20;33.40;;;;;;5054391;28;20052;-62
2022/07/02 11:28:53;;;;;;;0.80;0.30;;;28.20;33.70;;;;;;5054634;28;20067;-63
2022/07/02 11:31:21;;;;;;;1.38;0.38;;;28.30;33.80;;;;;;5053029;28;20041;-63
2022/07/02 11:33:54;;;;;;;1.90;0.40;;;28.40;33.70;;;;;;5054317;28;20512;-62
2022/07/02 11:36:21;;;;;;;1.08;0.40;;;28.40;33.70;;;;;;5054147;28;20444;-62
2022/07/02 11:38:49;;;;;;;1.65;0.30;;;28.50;33.50;;;;;;5052954;28;20048;-63
2022/07/02 11:41:18;;;;;;;1.38;0.40;;;28.60;33.10;;;;;;5053046;28;20049;-63
2022/07/02 11:43:44;;;;;;;1.38;0.40;;;28.50;33.20;;;;;;5054307;28;20080;-63
2022/07/02 11:46:13;;;;;;;1.65;0.50;;;28.50;33.80;;;;;;5052941;28;20032;-63
2022/07/02 11:48:41;;;;;;;2.45;0.50;;;28.60;33.40;;;;;;5054396;28;20060;-62
2022/07/02 11:51:07;;;;;;;1.98;0.40;;;28.60;33.40;;;;;;5053932;28;20047;-63
2022/07/02 11:53:33;;;;;;;1.52;0.40;;;28.60;33.50;;;;;;5053976;28;20468;-63
2022/07/02 11:56:14;;;;;;;1.50;0.40;;;28.60;33.10;;;;;;5053969;28;20049;-63
2022/07/02 11:58:44;;;;;;;2.85;0.60;;;28.50;33.40;;;;;;5052972;28;20420;-63
2022/07/02 12:01:23;;;;;;;2.42;0.60;;;28.50;33.70;;;;;;5052419;28;20076;-63
2022/07/02 12:03:51;;;;;;;2.40;0.45;;;28.60;33.70;;;;;;5053583;28;20639;-64
2022/07/02 12:06:16;;;;;;;1.65;0.50;;;28.50;33.50;;;;;;5053902;28;20111;-63
2022/07/02 12:08:43;;;;;;;1.15;0.40;;;28.50;33.50;;;;;;5052988;28;20449;-64
2022/07/02 12:11:13;;;;;;;1.80;0.47;;;28.60;33.30;;;;;;5053370;28;20047;-62
2022/07/02 12:13:39;;;;;;;2.53;0.57;;;28.50;33.30;;;;;;5049133;28;20032;-63
2022/07/02 12:16:05;;;;;;;1.70;0.45;;;28.50;33.30;;;;;;5054031;28;20082;-63
2022/07/02 12:18:31;;;;;;;0.95;0.40;;;28.50;33.90;;;;;;5052107;28;20040;-62
2022/07/02 12:21:10;;;;;;;1.23;0.40;;;28.50;34.10;;;;;;5052446;28;20048;-62
2022/07/02 12:23:50;;;;;;;3.50;0.60;;;28.60;33.80;;;;;;5053535;28;20044;-62
2022/07/02 12:26:23;;;;;;;1.48;0.50;;;28.60;33.90;;;;;;5053137;28;20071;-62
2022/07/02 12:31:49;;;;;;;3.42;0.85;;;28.60;33.40;;;;;;5052390;28;20060;-63
2022/07/02 12:34:16;;;;;;;1.63;0.43;;;28.60;33.80;;;;;;5051801;28;20045;-64
2022/07/02 12:36:51;;;;;;;0.65;0.30;;;28.60;33.90;;;;;;5052522;28;20061;-63
2022/07/02 12:39:17;;;;;;;2.17;0.50;;;28.70;34.00;;;;;;5053104;28;20125;-62
2022/07/02 12:41:43;;;;;;;1.10;0.40;;;28.60;34.10;;;;;;5051385;28;20115;-63
2022/07/02 12:44:19;;;;;;;3.42;0.68;;;28.70;33.90;;;;;;5053305;28;20392;-64
2022/07/02 12:46:47;;;;;;;1.83;0.45;;;28.70;33.90;;;;;;5051433;28;20108;-65
2022/07/02 12:49:31;;;;;;;1.55;0.30;;;28.70;33.90;;;;;;5033404;28;20037;-65
2022/07/02 12:52:02;;;;;;;;;;;28.80;34.70;;;;;;5037534;28;20048;-63
2022/07/02 12:54:36;;;;;;;1.42;0.50;;;28.70;34.80;;;;;;5053150;28;19916;-64
2022/07/02 12:57:21;;;;;;;1.48;0.50;;;28.80;34.30;;;;;;5052315;28;20041;-63
2022/07/02 12:59:49;;;;;;;2.30;0.50;;;28.80;33.60;;;;;;5032009;28;20041;-63